sensor_id;sensor_type;location;lat;lon;timestamp;P1;durP1;ratioP1;P2;durP2;ratioP2
20880;SDS011;10600;53.096;8.802;2022-12-07T00:00:00;45.90;;;19.58;;
20880;SDS011;10600;53.096;8.802;2022-12-07T00:01:11;35.50;;;17.48;;
20880;SDS011;10600;53.096;8.802;2022-12-07T00:02:13;40.33;;;18.83;;
20880;SDS011;10600;53.096;8.802;2022-12-07T00:03:14;36.35;;;16.90;;
20880;SDS011;10600;53.096;8.802;2022-12-07T00:04:15;37.75;;;16.60;;
20880;SDS011;10600;53.096;8.802;2022-12-07T00:05:17;36.47;;;17.42;;
20880;SDS011;10600;53.096;8.802;2022-12-07T00:06:18;35.42;;;18.35;;
20880;SDS011;10600;53.096;8.802;2022-12-07T00:07:20;36.63;;;16.38;;
20880;SDS011;10600;53.096;8.802;2022-12-07T00:08:20;33.53;;;17.35;;
20880;SDS011;10600;53.096;8.802;2022-12-07T00:09:21;33.42;;;16.17;;
20880;SDS011;10600;53.096;8.802;2022-12-07T00:10:22;33.42;;;16.58;;
20880;SDS011;10600;53.096;8.802;2022-12-07T00:11:23;37.38;;;16.90;;
20880;SDS011;10600;53.096;8.802;2022-12-07T00:12:23;36.00;;;17.92;;
20880;SDS011;10600;53.096;8.802;2022-12-07T00:13:24;35.03;;;17.05;;
20880;SDS011;10600;53.096;8.802;2022-12-07T00:14:25;32.58;;;16.83;;
20880;SDS011;10600;53.096;8.802;2022-12-07T00:15:25;38.53;;;14.45;;
20880;SDS011;10600;53.096;8.802;2022-12-07T00:16:27;36.45;;;16.65;;
20880;SDS011;10600;53.096;8.802;2022-12-07T00:17:29;32.90;;;15.90;;
20880;SDS011;10600;53.096;8.802;2022-12-07T00:18:30;34.42;;;15.15;;
20880;SDS011;10600;53.096;8.802;2022-12-07T00:19:31;32.38;;;13.45;;
20880;SDS011;10600;53.096;8.802;2022-12-07T00:20:31;34.85;;;17.20;;
20880;SDS011;10600;53.096;8.802;2022-12-07T00:21:34;31.63;;;14.82;;
20880;SDS011;10600;53.096;8.802;2022-12-07T00:22:35;32.17;;;14.52;;
20880;SDS011;10600;53.096;8.802;2022-12-07T00:23:36;27.60;;;14.48;;
20880;SDS011;10600;53.096;8.802;2022-12-07T00:24:37;31.52;;;14.65;;
20880;SDS011;10600;53.096;8.802;2022-12-07T00:25:38;27.10;;;13.82;;
20880;SDS011;10600;53.096;8.802;2022-12-07T00:26:39;30.08;;;14.65;;
20880;SDS011;10600;53.096;8.802;2022-12-07T00:27:40;35.33;;;15.23;;
20880;SDS011;10600;53.096;8.802;2022-12-07T00:28:40;32.20;;;14.55;;
20880;SDS011;10600;53.096;8.802;2022-12-07T00:29:44;30.85;;;13.82;;
20880;SDS011;10600;53.096;8.802;2022-12-07T00:30:45;28.45;;;14.18;;
20880;SDS011;10600;53.096;8.802;2022-12-07T00:31:45;27.48;;;12.10;;
20880;SDS011;10600;53.096;8.802;2022-12-07T00:32:46;25.67;;;12.13;;
20880;SDS011;10600;53.096;8.802;2022-12-07T00:33:47;24.67;;;12.73;;
20880;SDS011;10600;53.096;8.802;2022-12-07T00:34:48;32.10;;;13.20;;
20880;SDS011;10600;53.096;8.802;2022-12-07T00:35:54;30.73;;;15.05;;
20880;SDS011;10600;53.096;8.802;2022-12-07T00:36:55;35.53;;;14.93;;
20880;SDS011;10600;53.096;8.802;2022-12-07T00:37:56;34.15;;;15.05;;
20880;SDS011;10600;53.096;8.802;2022-12-07T00:38:57;30.50;;;14.52;;
20880;SDS011;10600;53.096;8.802;2022-12-07T00:39:59;25.58;;;12.82;;
20880;SDS011;10600;53.096;8.802;2022-12-07T00:41:10;33.05;;;14.73;;
20880;SDS011;10600;53.096;8.802;2022-12-07T00:42:15;30.17;;;12.80;;
20880;SDS011;10600;53.096;8.802;2022-12-07T00:43:16;12.32;;;7.72;;
20880;SDS011;10600;53.096;8.802;2022-12-07T00:44:16;26.63;;;12.43;;
20880;SDS011;10600;53.096;8.802;2022-12-07T00:45:17;32.17;;;13.48;;
20880;SDS011;10600;53.096;8.802;2022-12-07T00:46:18;29.88;;;14.15;;
20880;SDS011;10600;53.096;8.802;2022-12-07T00:47:20;32.55;;;14.10;;
20880;SDS011;10600;53.096;8.802;2022-12-07T00:48:20;31.00;;;13.48;;
20880;SDS011;10600;53.096;8.802;2022-12-07T00:49:22;27.52;;;13.05;;
20880;SDS011;10600;53.096;8.802;2022-12-07T00:50:23;24.67;;;11.45;;
20880;SDS011;10600;53.096;8.802;2022-12-07T00:51:24;29.45;;;14.52;;
20880;SDS011;10600;53.096;8.802;2022-12-07T00:52:25;15.38;;;7.15;;
20880;SDS011;10600;53.096;8.802;2022-12-07T00:53:26;24.40;;;10.75;;
20880;SDS011;10600;53.096;8.802;2022-12-07T00:54:27;29.73;;;14.13;;
20880;SDS011;10600;53.096;8.802;2022-12-07T00:55:28;25.05;;;10.20;;
20880;SDS011;10600;53.096;8.802;2022-12-07T00:56:32;31.00;;;13.07;;
20880;SDS011;10600;53.096;8.802;2022-12-07T00:57:33;23.80;;;11.05;;
20880;SDS011;10600;53.096;8.802;2022-12-07T00:58:34;26.80;;;11.85;;
20880;SDS011;10600;53.096;8.802;2022-12-07T00:59:34;27.58;;;11.70;;
20880;SDS011;10600;53.096;8.802;2022-12-07T01:00:36;26.80;;;12.73;;
20880;SDS011;10600;53.096;8.802;2022-12-07T01:01:38;21.08;;;10.38;;
20880;SDS011;10600;53.096;8.802;2022-12-07T01:02:39;19.52;;;9.82;;
20880;SDS011;10600;53.096;8.802;2022-12-07T01:03:40;19.17;;;9.88;;
20880;SDS011;10600;53.096;8.802;2022-12-07T01:04:40;17.63;;;8.35;;
20880;SDS011;10600;53.096;8.802;2022-12-07T01:05:48;24.52;;;10.85;;
20880;SDS011;10600;53.096;8.802;2022-12-07T01:06:51;23.00;;;9.73;;
20880;SDS011;10600;53.096;8.802;2022-12-07T01:07:51;26.83;;;11.35;;
20880;SDS011;10600;53.096;8.802;2022-12-07T01:08:52;19.80;;;9.93;;
20880;SDS011;10600;53.096;8.802;2022-12-07T01:09:53;20.40;;;8.93;;
20880;SDS011;10600;53.096;8.802;2022-12-07T01:11:00;21.95;;;10.45;;
20880;SDS011;10600;53.096;8.802;2022-12-07T01:12:05;14.75;;;6.13;;
20880;SDS011;10600;53.096;8.802;2022-12-07T01:13:05;22.42;;;10.23;;
20880;SDS011;10600;53.096;8.802;2022-12-07T01:14:06;21.92;;;10.70;;
20880;SDS011;10600;53.096;8.802;2022-12-07T01:15:08;22.33;;;10.15;;
20880;SDS011;10600;53.096;8.802;2022-12-07T01:16:10;20.08;;;8.10;;
20880;SDS011;10600;53.096;8.802;2022-12-07T01:17:13;24.10;;;9.75;;
20880;SDS011;10600;53.096;8.802;2022-12-07T01:18:14;25.77;;;10.75;;
20880;SDS011;10600;53.096;8.802;2022-12-07T01:19:14;21.70;;;9.93;;
20880;SDS011;10600;53.096;8.802;2022-12-07T01:20:15;16.38;;;8.15;;
20880;SDS011;10600;53.096;8.802;2022-12-07T01:21:20;17.75;;;7.95;;
20880;SDS011;10600;53.096;8.802;2022-12-07T01:22:24;8.45;;;4.63;;
20880;SDS011;10600;53.096;8.802;2022-12-07T01:23:25;20.48;;;10.70;;
20880;SDS011;10600;53.096;8.802;2022-12-07T01:24:26;10.35;;;4.53;;
20880;SDS011;10600;53.096;8.802;2022-12-07T01:25:26;18.83;;;8.25;;
20880;SDS011;10600;53.096;8.802;2022-12-07T01:26:27;14.93;;;7.05;;
20880;SDS011;10600;53.096;8.802;2022-12-07T01:27:28;13.43;;;6.88;;
20880;SDS011;10600;53.096;8.802;2022-12-07T01:28:28;22.95;;;10.13;;
20880;SDS011;10600;53.096;8.802;2022-12-07T01:29:29;19.48;;;8.73;;
20880;SDS011;10600;53.096;8.802;2022-12-07T01:30:30;15.73;;;8.75;;
20880;SDS011;10600;53.096;8.802;2022-12-07T01:31:30;24.20;;;6.78;;
20880;SDS011;10600;53.096;8.802;2022-12-07T01:32:31;20.50;;;8.18;;
20880;SDS011;10600;53.096;8.802;2022-12-07T01:33:33;10.68;;;5.38;;
20880;SDS011;10600;53.096;8.802;2022-12-07T01:34:35;20.35;;;8.95;;
20880;SDS011;10600;53.096;8.802;2022-12-07T01:35:36;31.60;;;8.05;;
20880;SDS011;10600;53.096;8.802;2022-12-07T01:36:36;10.88;;;6.38;;
20880;SDS011;10600;53.096;8.802;2022-12-07T01:37:37;13.07;;;6.22;;
20880;SDS011;10600;53.096;8.802;2022-12-07T01:38:39;17.13;;;7.68;;
20880;SDS011;10600;53.096;8.802;2022-12-07T01:39:40;19.80;;;7.70;;
20880;SDS011;10600;53.096;8.802;2022-12-07T01:40:41;16.42;;;7.95;;
20880;SDS011;10600;53.096;8.802;2022-12-07T01:41:42;15.73;;;7.13;;
20880;SDS011;10600;53.096;8.802;2022-12-07T01:42:43;15.77;;;7.50;;
20880;SDS011;10600;53.096;8.802;2022-12-07T01:46:17;11.90;;;5.72;;
20880;SDS011;10600;53.096;8.802;2022-12-07T01:47:18;13.82;;;5.60;;
20880;SDS011;10600;53.096;8.802;2022-12-07T01:48:20;13.45;;;5.70;;
20880;SDS011;10600;53.096;8.802;2022-12-07T01:50:38;13.68;;;6.25;;
20880;SDS011;10600;53.096;8.802;2022-12-07T01:51:41;13.25;;;3.90;;
20880;SDS011;10600;53.096;8.802;2022-12-07T01:52:43;10.27;;;4.50;;
20880;SDS011;10600;53.096;8.802;2022-12-07T01:53:48;9.43;;;4.78;;
20880;SDS011;10600;53.096;8.802;2022-12-07T01:54:49;12.13;;;5.53;;
20880;SDS011;10600;53.096;8.802;2022-12-07T01:55:54;9.05;;;4.72;;
20880;SDS011;10600;53.096;8.802;2022-12-07T01:56:55;11.13;;;5.07;;
20880;SDS011;10600;53.096;8.802;2022-12-07T01:57:57;14.50;;;5.40;;
20880;SDS011;10600;53.096;8.802;2022-12-07T01:58:58;7.68;;;3.45;;
20880;SDS011;10600;53.096;8.802;2022-12-07T02:00:00;11.98;;;4.90;;
20880;SDS011;10600;53.096;8.802;2022-12-07T02:01:01;10.35;;;4.68;;
20880;SDS011;10600;53.096;8.802;2022-12-07T02:02:02;15.75;;;4.95;;
20880;SDS011;10600;53.096;8.802;2022-12-07T02:03:09;12.75;;;5.32;;
20880;SDS011;10600;53.096;8.802;2022-12-07T02:04:15;11.25;;;4.47;;
20880;SDS011;10600;53.096;8.802;2022-12-07T02:05:17;11.18;;;4.85;;
20880;SDS011;10600;53.096;8.802;2022-12-07T02:06:20;15.80;;;5.50;;
20880;SDS011;10600;53.096;8.802;2022-12-07T02:07:25;11.52;;;4.88;;
20880;SDS011;10600;53.096;8.802;2022-12-07T02:08:26;14.18;;;5.20;;
20880;SDS011;10600;53.096;8.802;2022-12-07T02:09:27;11.18;;;5.03;;
20880;SDS011;10600;53.096;8.802;2022-12-07T02:10:28;12.10;;;5.07;;
20880;SDS011;10600;53.096;8.802;2022-12-07T02:11:30;12.30;;;6.53;;
20880;SDS011;10600;53.096;8.802;2022-12-07T02:12:31;6.85;;;3.47;;
20880;SDS011;10600;53.096;8.802;2022-12-07T02:13:32;12.50;;;5.32;;
20880;SDS011;10600;53.096;8.802;2022-12-07T02:14:35;13.65;;;6.32;;
20880;SDS011;10600;53.096;8.802;2022-12-07T02:26:26;12.02;;;5.82;;
20880;SDS011;10600;53.096;8.802;2022-12-07T02:27:46;14.75;;;7.63;;
20880;SDS011;10600;53.096;8.802;2022-12-07T02:28:58;15.23;;;6.55;;
20880;SDS011;10600;53.096;8.802;2022-12-07T02:30:07;10.40;;;5.78;;
20880;SDS011;10600;53.096;8.802;2022-12-07T02:31:10;12.43;;;5.88;;
20880;SDS011;10600;53.096;8.802;2022-12-07T02:32:23;14.00;;;6.85;;
20880;SDS011;10600;53.096;8.802;2022-12-07T02:33:28;16.92;;;6.63;;
20880;SDS011;10600;53.096;8.802;2022-12-07T02:34:44;16.90;;;5.90;;
20880;SDS011;10600;53.096;8.802;2022-12-07T02:36:08;13.43;;;7.30;;
20880;SDS011;10600;53.096;8.802;2022-12-07T02:38:51;11.73;;;6.28;;
20880;SDS011;10600;53.096;8.802;2022-12-07T02:39:59;18.13;;;6.63;;
20880;SDS011;10600;53.096;8.802;2022-12-07T02:41:04;17.98;;;7.13;;
20880;SDS011;10600;53.096;8.802;2022-12-07T02:42:12;16.00;;;7.60;;
20880;SDS011;10600;53.096;8.802;2022-12-07T02:43:24;15.38;;;6.05;;
20880;SDS011;10600;53.096;8.802;2022-12-07T02:44:27;13.65;;;7.35;;
20880;SDS011;10600;53.096;8.802;2022-12-07T02:45:29;17.35;;;7.93;;
20880;SDS011;10600;53.096;8.802;2022-12-07T02:46:33;22.15;;;8.55;;
20880;SDS011;10600;53.096;8.802;2022-12-07T02:47:38;18.48;;;6.85;;
20880;SDS011;10600;53.096;8.802;2022-12-07T02:48:40;18.10;;;7.70;;
20880;SDS011;10600;53.096;8.802;2022-12-07T02:49:43;12.60;;;6.28;;
20880;SDS011;10600;53.096;8.802;2022-12-07T02:50:45;10.57;;;4.03;;
20880;SDS011;10600;53.096;8.802;2022-12-07T02:51:50;17.88;;;7.43;;
20880;SDS011;10600;53.096;8.802;2022-12-07T02:52:52;6.30;;;2.88;;
20880;SDS011;10600;53.096;8.802;2022-12-07T02:53:53;12.77;;;5.97;;
20880;SDS011;10600;53.096;8.802;2022-12-07T02:54:53;11.82;;;5.10;;
20880;SDS011;10600;53.096;8.802;2022-12-07T02:55:54;15.45;;;6.28;;
20880;SDS011;10600;53.096;8.802;2022-12-07T02:57:01;11.50;;;5.32;;
20880;SDS011;10600;53.096;8.802;2022-12-07T02:58:29;14.60;;;5.97;;
20880;SDS011;10600;53.096;8.802;2022-12-07T03:00:08;10.93;;;5.22;;
20880;SDS011;10600;53.096;8.802;2022-12-07T03:01:12;9.55;;;4.22;;
20880;SDS011;10600;53.096;8.802;2022-12-07T03:02:28;12.20;;;4.72;;
20880;SDS011;10600;53.096;8.802;2022-12-07T03:03:58;15.23;;;6.20;;
20880;SDS011;10600;53.096;8.802;2022-12-07T03:06:50;9.57;;;5.47;;
20880;SDS011;10600;53.096;8.802;2022-12-07T03:09:11;10.43;;;5.43;;
20880;SDS011;10600;53.096;8.802;2022-12-07T03:11:33;10.88;;;5.63;;
20880;SDS011;10600;53.096;8.802;2022-12-07T03:13:07;7.65;;;3.65;;
20880;SDS011;10600;53.096;8.802;2022-12-07T03:14:21;8.27;;;3.45;;
20880;SDS011;10600;53.096;8.802;2022-12-07T03:16:52;8.68;;;3.53;;
20880;SDS011;10600;53.096;8.802;2022-12-07T03:17:58;15.75;;;5.13;;
20880;SDS011;10600;53.096;8.802;2022-12-07T03:19:03;7.55;;;3.67;;
20880;SDS011;10600;53.096;8.802;2022-12-07T03:20:16;7.90;;;4.18;;
20880;SDS011;10600;53.096;8.802;2022-12-07T03:21:23;8.27;;;3.13;;
20880;SDS011;10600;53.096;8.802;2022-12-07T03:22:31;3.53;;;2.30;;
20880;SDS011;10600;53.096;8.802;2022-12-07T03:23:35;4.78;;;2.30;;
20880;SDS011;10600;53.096;8.802;2022-12-07T03:24:40;7.28;;;3.83;;
20880;SDS011;10600;53.096;8.802;2022-12-07T03:25:47;7.88;;;3.13;;
20880;SDS011;10600;53.096;8.802;2022-12-07T03:26:52;3.63;;;2.13;;
20880;SDS011;10600;53.096;8.802;2022-12-07T03:28:04;6.90;;;2.67;;
20880;SDS011;10600;53.096;8.802;2022-12-07T03:29:08;6.50;;;2.83;;
20880;SDS011;10600;53.096;8.802;2022-12-07T03:30:19;5.70;;;1.85;;
20880;SDS011;10600;53.096;8.802;2022-12-07T03:31:23;7.68;;;2.95;;
20880;SDS011;10600;53.096;8.802;2022-12-07T03:34:04;5.95;;;2.67;;
20880;SDS011;10600;53.096;8.802;2022-12-07T03:35:07;5.30;;;2.30;;
20880;SDS011;10600;53.096;8.802;2022-12-07T03:36:55;1.98;;;1.60;;
20880;SDS011;10600;53.096;8.802;2022-12-07T03:38:40;7.57;;;2.78;;
20880;SDS011;10600;53.096;8.802;2022-12-07T03:39:48;9.70;;;3.20;;
20880;SDS011;10600;53.096;8.802;2022-12-07T03:41:04;8.65;;;2.40;;
20880;SDS011;10600;53.096;8.802;2022-12-07T03:42:09;6.43;;;2.20;;
20880;SDS011;10600;53.096;8.802;2022-12-07T03:43:11;2.60;;;1.80;;
20880;SDS011;10600;53.096;8.802;2022-12-07T03:44:12;6.05;;;2.90;;
20880;SDS011;10600;53.096;8.802;2022-12-07T03:45:14;8.70;;;2.40;;
20880;SDS011;10600;53.096;8.802;2022-12-07T03:46:20;3.03;;;1.60;;
20880;SDS011;10600;53.096;8.802;2022-12-07T03:48:21;3.95;;;1.55;;
20880;SDS011;10600;53.096;8.802;2022-12-07T03:49:30;6.45;;;2.30;;
20880;SDS011;10600;53.096;8.802;2022-12-07T03:50:44;2.00;;;1.77;;
20880;SDS011;10600;53.096;8.802;2022-12-07T03:53:37;6.55;;;3.13;;
20880;SDS011;10600;53.096;8.802;2022-12-07T03:54:45;11.07;;;3.00;;
20880;SDS011;10600;53.096;8.802;2022-12-07T03:55:57;10.20;;;3.42;;
20880;SDS011;10600;53.096;8.802;2022-12-07T03:56:59;7.05;;;2.83;;
20880;SDS011;10600;53.096;8.802;2022-12-07T03:58:06;10.35;;;4.10;;
20880;SDS011;10600;53.096;8.802;2022-12-07T03:59:11;9.30;;;3.47;;
20880;SDS011;10600;53.096;8.802;2022-12-07T04:00:13;8.00;;;4.38;;
20880;SDS011;10600;53.096;8.802;2022-12-07T04:01:14;10.00;;;3.42;;
20880;SDS011;10600;53.096;8.802;2022-12-07T04:02:14;15.23;;;5.63;;
20880;SDS011;10600;53.096;8.802;2022-12-07T04:03:16;12.25;;;4.38;;
20880;SDS011;10600;53.096;8.802;2022-12-07T04:04:17;18.67;;;7.05;;
20880;SDS011;10600;53.096;8.802;2022-12-07T04:05:18;14.65;;;5.20;;
20880;SDS011;10600;53.096;8.802;2022-12-07T04:06:18;11.32;;;5.15;;
20880;SDS011;10600;53.096;8.802;2022-12-07T04:07:19;19.45;;;6.90;;
20880;SDS011;10600;53.096;8.802;2022-12-07T04:08:20;14.23;;;6.60;;
20880;SDS011;10600;53.096;8.802;2022-12-07T04:09:21;13.55;;;6.00;;
20880;SDS011;10600;53.096;8.802;2022-12-07T04:10:21;18.75;;;5.68;;
20880;SDS011;10600;53.096;8.802;2022-12-07T04:11:22;16.88;;;7.85;;
20880;SDS011;10600;53.096;8.802;2022-12-07T04:12:23;14.23;;;6.50;;
20880;SDS011;10600;53.096;8.802;2022-12-07T04:13:23;17.10;;;6.68;;
20880;SDS011;10600;53.096;8.802;2022-12-07T04:14:24;20.48;;;7.68;;
20880;SDS011;10600;53.096;8.802;2022-12-07T04:15:25;21.13;;;7.78;;
20880;SDS011;10600;53.096;8.802;2022-12-07T04:16:25;19.63;;;7.82;;
20880;SDS011;10600;53.096;8.802;2022-12-07T04:17:26;18.63;;;7.78;;
20880;SDS011;10600;53.096;8.802;2022-12-07T04:18:26;19.70;;;7.40;;
20880;SDS011;10600;53.096;8.802;2022-12-07T04:19:28;23.70;;;8.73;;
20880;SDS011;10600;53.096;8.802;2022-12-07T04:20:30;19.23;;;8.90;;
20880;SDS011;10600;53.096;8.802;2022-12-07T04:21:31;13.38;;;6.70;;
20880;SDS011;10600;53.096;8.802;2022-12-07T04:22:31;22.10;;;9.10;;
20880;SDS011;10600;53.096;8.802;2022-12-07T04:23:32;19.60;;;9.35;;
20880;SDS011;10600;53.096;8.802;2022-12-07T04:24:33;21.25;;;8.48;;
20880;SDS011;10600;53.096;8.802;2022-12-07T04:25:34;21.80;;;8.52;;
20880;SDS011;10600;53.096;8.802;2022-12-07T04:26:35;15.85;;;5.88;;
20880;SDS011;10600;53.096;8.802;2022-12-07T04:27:36;18.42;;;7.63;;
20880;SDS011;10600;53.096;8.802;2022-12-07T04:28:36;24.05;;;8.82;;
20880;SDS011;10600;53.096;8.802;2022-12-07T04:29:37;20.83;;;10.32;;
20880;SDS011;10600;53.096;8.802;2022-12-07T04:30:38;21.13;;;9.13;;
20880;SDS011;10600;53.096;8.802;2022-12-07T04:31:38;33.47;;;10.32;;
20880;SDS011;10600;53.096;8.802;2022-12-07T04:32:39;25.67;;;9.68;;
20880;SDS011;10600;53.096;8.802;2022-12-07T04:33:40;27.60;;;9.98;;
20880;SDS011;10600;53.096;8.802;2022-12-07T04:34:40;23.02;;;9.80;;
20880;SDS011;10600;53.096;8.802;2022-12-07T04:35:42;25.77;;;9.35;;
20880;SDS011;10600;53.096;8.802;2022-12-07T04:36:43;21.70;;;10.65;;
20880;SDS011;10600;53.096;8.802;2022-12-07T04:37:44;24.75;;;9.38;;
20880;SDS011;10600;53.096;8.802;2022-12-07T04:38:45;30.98;;;11.23;;
20880;SDS011;10600;53.096;8.802;2022-12-07T04:39:45;25.70;;;9.70;;
20880;SDS011;10600;53.096;8.802;2022-12-07T04:40:46;23.92;;;10.50;;
20880;SDS011;10600;53.096;8.802;2022-12-07T04:41:47;24.95;;;9.77;;
20880;SDS011;10600;53.096;8.802;2022-12-07T04:42:47;20.90;;;9.50;;
20880;SDS011;10600;53.096;8.802;2022-12-07T04:43:48;23.40;;;9.35;;
20880;SDS011;10600;53.096;8.802;2022-12-07T04:44:49;21.60;;;10.27;;
20880;SDS011;10600;53.096;8.802;2022-12-07T04:45:50;25.08;;;10.27;;
20880;SDS011;10600;53.096;8.802;2022-12-07T04:46:51;25.23;;;8.93;;
20880;SDS011;10600;53.096;8.802;2022-12-07T04:47:52;25.50;;;9.48;;
20880;SDS011;10600;53.096;8.802;2022-12-07T04:48:53;24.80;;;10.40;;
20880;SDS011;10600;53.096;8.802;2022-12-07T04:49:54;24.90;;;10.75;;
20880;SDS011;10600;53.096;8.802;2022-12-07T04:50:55;28.05;;;11.40;;
20880;SDS011;10600;53.096;8.802;2022-12-07T04:51:56;24.77;;;10.38;;
20880;SDS011;10600;53.096;8.802;2022-12-07T04:52:57;23.58;;;10.13;;
20880;SDS011;10600;53.096;8.802;2022-12-07T04:53:57;26.63;;;11.25;;
20880;SDS011;10600;53.096;8.802;2022-12-07T04:54:58;23.95;;;9.02;;
20880;SDS011;10600;53.096;8.802;2022-12-07T04:55:59;25.35;;;11.57;;
20880;SDS011;10600;53.096;8.802;2022-12-07T04:57:01;23.45;;;9.25;;
20880;SDS011;10600;53.096;8.802;2022-12-07T04:58:01;23.70;;;9.45;;
20880;SDS011;10600;53.096;8.802;2022-12-07T04:59:02;23.05;;;9.80;;
20880;SDS011;10600;53.096;8.802;2022-12-07T05:00:07;23.02;;;9.15;;
20880;SDS011;10600;53.096;8.802;2022-12-07T05:01:11;19.98;;;8.65;;
20880;SDS011;10600;53.096;8.802;2022-12-07T05:02:13;20.45;;;7.68;;
20880;SDS011;10600;53.096;8.802;2022-12-07T05:03:13;17.40;;;7.90;;
20880;SDS011;10600;53.096;8.802;2022-12-07T05:04:14;14.18;;;5.15;;
20880;SDS011;10600;53.096;8.802;2022-12-07T05:05:16;17.52;;;8.20;;
20880;SDS011;10600;53.096;8.802;2022-12-07T05:06:16;22.95;;;9.18;;
20880;SDS011;10600;53.096;8.802;2022-12-07T05:07:17;15.68;;;6.88;;
20880;SDS011;10600;53.096;8.802;2022-12-07T05:08:18;19.88;;;8.27;;
20880;SDS011;10600;53.096;8.802;2022-12-07T05:09:19;21.33;;;7.40;;
20880;SDS011;10600;53.096;8.802;2022-12-07T05:10:20;17.70;;;7.38;;
20880;SDS011;10600;53.096;8.802;2022-12-07T05:11:21;17.27;;;7.05;;
20880;SDS011;10600;53.096;8.802;2022-12-07T05:12:40;17.55;;;7.32;;
20880;SDS011;10600;53.096;8.802;2022-12-07T05:13:40;13.95;;;6.05;;
20880;SDS011;10600;53.096;8.802;2022-12-07T05:14:41;16.48;;;6.57;;
20880;SDS011;10600;53.096;8.802;2022-12-07T05:15:42;16.67;;;7.22;;
20880;SDS011;10600;53.096;8.802;2022-12-07T05:16:44;19.75;;;8.00;;
20880;SDS011;10600;53.096;8.802;2022-12-07T05:17:46;22.35;;;8.80;;
20880;SDS011;10600;53.096;8.802;2022-12-07T05:18:46;17.98;;;7.50;;
20880;SDS011;10600;53.096;8.802;2022-12-07T05:19:47;20.05;;;7.93;;
20880;SDS011;10600;53.096;8.802;2022-12-07T05:20:48;21.10;;;8.23;;
20880;SDS011;10600;53.096;8.802;2022-12-07T05:21:49;18.42;;;7.95;;
20880;SDS011;10600;53.096;8.802;2022-12-07T05:22:49;18.15;;;7.30;;
20880;SDS011;10600;53.096;8.802;2022-12-07T05:23:50;25.05;;;7.80;;
20880;SDS011;10600;53.096;8.802;2022-12-07T05:24:51;16.50;;;7.45;;
20880;SDS011;10600;53.096;8.802;2022-12-07T05:25:52;22.08;;;8.40;;
20880;SDS011;10600;53.096;8.802;2022-12-07T05:26:52;18.63;;;8.40;;
20880;SDS011;10600;53.096;8.802;2022-12-07T05:27:54;24.80;;;8.27;;
20880;SDS011;10600;53.096;8.802;2022-12-07T05:28:56;17.73;;;7.43;;
20880;SDS011;10600;53.096;8.802;2022-12-07T05:29:57;16.30;;;6.72;;
20880;SDS011;10600;53.096;8.802;2022-12-07T05:30:58;16.23;;;6.43;;
20880;SDS011;10600;53.096;8.802;2022-12-07T05:31:58;15.88;;;7.30;;
20880;SDS011;10600;53.096;8.802;2022-12-07T05:32:59;15.98;;;6.97;;
20880;SDS011;10600;53.096;8.802;2022-12-07T05:34:00;12.50;;;5.88;;
20880;SDS011;10600;53.096;8.802;2022-12-07T05:35:01;14.35;;;6.57;;
20880;SDS011;10600;53.096;8.802;2022-12-07T05:36:01;15.70;;;6.03;;
20880;SDS011;10600;53.096;8.802;2022-12-07T05:37:05;14.13;;;5.70;;
20880;SDS011;10600;53.096;8.802;2022-12-07T05:38:06;15.65;;;6.07;;
20880;SDS011;10600;53.096;8.802;2022-12-07T05:39:06;13.27;;;5.10;;
20880;SDS011;10600;53.096;8.802;2022-12-07T05:40:07;15.73;;;6.18;;
20880;SDS011;10600;53.096;8.802;2022-12-07T05:41:09;12.50;;;6.20;;
20880;SDS011;10600;53.096;8.802;2022-12-07T05:42:33;17.23;;;5.72;;
20880;SDS011;10600;53.096;8.802;2022-12-07T05:43:34;12.15;;;5.50;;
20880;SDS011;10600;53.096;8.802;2022-12-07T05:44:35;14.10;;;5.53;;
20880;SDS011;10600;53.096;8.802;2022-12-07T05:45:35;13.88;;;5.80;;
20880;SDS011;10600;53.096;8.802;2022-12-07T05:46:36;10.02;;;5.45;;
20880;SDS011;10600;53.096;8.802;2022-12-07T05:47:37;11.55;;;4.72;;
20880;SDS011;10600;53.096;8.802;2022-12-07T05:48:38;13.27;;;5.53;;
20880;SDS011;10600;53.096;8.802;2022-12-07T05:49:39;11.13;;;4.28;;
20880;SDS011;10600;53.096;8.802;2022-12-07T05:50:39;11.63;;;4.25;;
20880;SDS011;10600;53.096;8.802;2022-12-07T05:51:40;12.85;;;4.95;;
20880;SDS011;10600;53.096;8.802;2022-12-07T05:52:41;14.45;;;4.80;;
20880;SDS011;10600;53.096;8.802;2022-12-07T05:53:41;9.45;;;4.70;;
20880;SDS011;10600;53.096;8.802;2022-12-07T05:54:42;11.90;;;4.40;;
20880;SDS011;10600;53.096;8.802;2022-12-07T05:55:43;9.07;;;4.55;;
20880;SDS011;10600;53.096;8.802;2022-12-07T05:56:44;6.95;;;4.22;;
20880;SDS011;10600;53.096;8.802;2022-12-07T05:57:45;10.20;;;3.70;;
20880;SDS011;10600;53.096;8.802;2022-12-07T05:59:05;12.88;;;4.22;;
20880;SDS011;10600;53.096;8.802;2022-12-07T06:00:24;5.80;;;3.22;;
20880;SDS011;10600;53.096;8.802;2022-12-07T06:01:25;14.13;;;5.90;;
20880;SDS011;10600;53.096;8.802;2022-12-07T06:02:25;10.68;;;4.07;;
20880;SDS011;10600;53.096;8.802;2022-12-07T06:03:26;9.95;;;3.83;;
20880;SDS011;10600;53.096;8.802;2022-12-07T06:04:31;14.27;;;4.35;;
20880;SDS011;10600;53.096;8.802;2022-12-07T06:05:33;12.10;;;3.78;;
20880;SDS011;10600;53.096;8.802;2022-12-07T06:06:34;11.68;;;4.10;;
20880;SDS011;10600;53.096;8.802;2022-12-07T06:07:34;12.77;;;4.60;;
20880;SDS011;10600;53.096;8.802;2022-12-07T06:08:35;11.68;;;3.45;;
20880;SDS011;10600;53.096;8.802;2022-12-07T06:09:35;7.07;;;4.30;;
20880;SDS011;10600;53.096;8.802;2022-12-07T06:10:36;6.60;;;2.33;;
20880;SDS011;10600;53.096;8.802;2022-12-07T06:11:37;11.30;;;4.10;;
20880;SDS011;10600;53.096;8.802;2022-12-07T06:12:56;10.48;;;3.00;;
20880;SDS011;10600;53.096;8.802;2022-12-07T06:13:57;11.93;;;3.47;;
20880;SDS011;10600;53.096;8.802;2022-12-07T06:14:57;7.05;;;3.00;;
20880;SDS011;10600;53.096;8.802;2022-12-07T06:15:58;13.38;;;3.42;;
20880;SDS011;10600;53.096;8.802;2022-12-07T06:16:59;5.78;;;2.22;;
20880;SDS011;10600;53.096;8.802;2022-12-07T06:18:00;4.95;;;2.40;;
20880;SDS011;10600;53.096;8.802;2022-12-07T06:19:00;2.90;;;1.77;;
20880;SDS011;10600;53.096;8.802;2022-12-07T06:20:01;3.90;;;1.92;;
20880;SDS011;10600;53.096;8.802;2022-12-07T06:21:02;11.05;;;3.25;;
20880;SDS011;10600;53.096;8.802;2022-12-07T06:22:03;8.82;;;3.78;;
20880;SDS011;10600;53.096;8.802;2022-12-07T06:23:04;9.88;;;3.78;;
20880;SDS011;10600;53.096;8.802;2022-12-07T06:24:05;11.45;;;3.25;;
20880;SDS011;10600;53.096;8.802;2022-12-07T06:25:07;6.78;;;3.70;;
20880;SDS011;10600;53.096;8.802;2022-12-07T06:26:08;10.70;;;3.55;;
20880;SDS011;10600;53.096;8.802;2022-12-07T06:27:09;5.43;;;3.10;;
20880;SDS011;10600;53.096;8.802;2022-12-07T06:28:10;8.15;;;3.38;;
20880;SDS011;10600;53.096;8.802;2022-12-07T06:29:11;13.70;;;4.00;;
20880;SDS011;10600;53.096;8.802;2022-12-07T06:30:12;11.38;;;3.50;;
20880;SDS011;10600;53.096;8.802;2022-12-07T06:31:13;10.70;;;3.83;;
20880;SDS011;10600;53.096;8.802;2022-12-07T06:32:14;5.60;;;3.10;;
20880;SDS011;10600;53.096;8.802;2022-12-07T06:33:15;8.68;;;3.95;;
20880;SDS011;10600;53.096;8.802;2022-12-07T06:34:17;8.45;;;2.97;;
20880;SDS011;10600;53.096;8.802;2022-12-07T06:35:19;7.45;;;2.78;;
20880;SDS011;10600;53.096;8.802;2022-12-07T06:36:19;8.95;;;3.47;;
20880;SDS011;10600;53.096;8.802;2022-12-07T06:37:20;9.63;;;3.33;;
20880;SDS011;10600;53.096;8.802;2022-12-07T06:38:21;14.20;;;4.20;;
20880;SDS011;10600;53.096;8.802;2022-12-07T06:39:23;14.80;;;3.80;;
20880;SDS011;10600;53.096;8.802;2022-12-07T06:40:25;5.47;;;2.53;;